createdAt,value
2023-01-15T00:00:32.530Z,29
2023-01-15T00:15:32.855Z,29
2023-01-15T00:30:32.849Z,29
2023-01-15T00:45:32.331Z,29
2023-01-15T01:00:32.257Z,29
2023-01-15T01:15:31.962Z,29
2023-01-15T01:30:32.423Z,29
2023-01-15T01:45:32.422Z,29
2023-01-15T02:00:32.899Z,29
2023-01-15T02:15:32.242Z,29
2023-01-15T02:30:32.028Z,29
2023-01-15T02:45:32.104Z,29
2023-01-15T03:00:32.034Z,29
2023-01-15T03:15:31.982Z,29
2023-01-15T03:30:32.760Z,29
2023-01-15T03:45:32.215Z,30
2023-01-15T04:00:32.076Z,30
2023-01-15T04:15:32.300Z,30
2023-01-15T04:30:32.578Z,30
2023-01-15T04:45:32.154Z,30
2023-01-15T05:00:31.906Z,30
2023-01-15T05:15:32.568Z,30
2023-01-15T05:30:32.988Z,30
2023-01-15T05:45:32.036Z,30
2023-01-15T06:00:32.350Z,30
2023-01-15T06:15:32.076Z,31
2023-01-15T06:30:32.273Z,31
2023-01-15T06:45:32.040Z,32
2023-01-15T07:00:35.067Z,32
2023-01-15T07:15:31.905Z,32
2023-01-15T07:30:32.901Z,32
2023-01-15T07:45:32.224Z,33
2023-01-15T08:00:34.776Z,33
2023-01-15T08:15:32.496Z,34
2023-01-15T08:30:32.162Z,34
2023-01-15T08:45:33.006Z,34
2023-01-15T09:00:34.017Z,34
2023-01-15T09:15:32.659Z,35
2023-01-15T09:30:32.751Z,35
2023-01-15T09:45:32.475Z,35
2023-01-15T10:00:35.436Z,35
2023-01-15T10:15:32.694Z,35
2023-01-15T10:30:32.358Z,35
2023-01-15T10:45:32.141Z,35
2023-01-15T11:00:33.271Z,35
2023-01-15T11:15:32.974Z,35
2023-01-15T11:30:33.325Z,35
2023-01-15T11:45:32.582Z,35
2023-01-15T12:00:34.685Z,35
2023-01-15T12:15:33.360Z,35
2023-01-15T12:30:32.913Z,35
2023-01-15T12:45:32.605Z,35
2023-01-15T13:00:34.666Z,35
2023-01-15T13:15:32.179Z,35
2023-01-15T13:30:33.233Z,35
2023-01-15T13:45:33.139Z,35
2023-01-15T14:00:33.293Z,35
2023-01-15T14:15:31.843Z,34
2023-01-15T14:30:32.691Z,34
2023-01-15T14:45:32.681Z,34
2023-01-15T15:00:33.867Z,34
2023-01-15T15:15:32.132Z,34
2023-01-15T15:30:33.674Z,34
2023-01-15T15:45:32.850Z,34
2023-01-15T16:00:34.715Z,34
2023-01-15T16:15:32.193Z,34
2023-01-15T16:30:33.752Z,33
2023-01-15T16:45:32.257Z,33
2023-01-15T17:00:33.734Z,33
2023-01-15T17:15:32.363Z,33
2023-01-15T17:30:33.715Z,32
2023-01-15T17:45:32.728Z,32
2023-01-15T18:00:34.789Z,32
2023-01-15T18:15:32.667Z,32
2023-01-15T18:30:31.955Z,31
2023-01-15T18:45:32.511Z,31
2023-01-15T19:00:35.452Z,31
2023-01-15T19:15:33.434Z,31
2023-01-15T19:30:33.110Z,31
2023-01-15T19:45:32.159Z,30
2023-01-15T20:00:37.339Z,30
2023-01-15T20:15:32.632Z,30
2023-01-15T20:30:32.567Z,30
2023-01-15T20:45:32.848Z,30
2023-01-15T21:00:32.893Z,30
2023-01-15T21:15:32.207Z,29
2023-01-15T21:30:32.685Z,29
2023-01-15T21:45:32.741Z,29
2023-01-15T22:00:32.631Z,29
2023-01-15T22:15:32.832Z,29
2023-01-15T22:30:32.732Z,29
2023-01-15T22:45:32.001Z,29
2023-01-15T23:00:32.343Z,29
2023-01-15T23:15:32.522Z,29
2023-01-15T23:30:32.504Z,28
2023-01-15T23:45:32.555Z,28
